createdAt,value
2022-08-07T00:00:18.569Z,19.13
2022-08-07T00:01:44.471Z,19.12
2022-08-07T00:02:44.693Z,19.11
2022-08-07T00:03:47.544Z,19.09
2022-08-07T00:04:49.506Z,19.10
2022-08-07T00:05:53.294Z,19.11
2022-08-07T00:06:55.900Z,19.10
2022-08-07T00:08:03.980Z,19.12
2022-08-07T00:09:16.305Z,19.12
2022-08-07T00:10:26.599Z,19.10
2022-08-07T00:11:30.086Z,19.10
2022-08-07T00:12:35.159Z,19.11
2022-08-07T00:13:57.104Z,19.11
2022-08-07T00:15:01.255Z,19.10
2022-08-07T00:16:03.510Z,19.08
2022-08-07T00:17:06.612Z,19.06
2022-08-07T00:18:19.319Z,19.06
2022-08-07T00:19:26.035Z,19.05
2022-08-07T00:20:36.581Z,19.06
2022-08-07T00:21:57.312Z,19.03
2022-08-07T00:23:00.203Z,19.04
2022-08-07T00:24:02.037Z,19.05
2022-08-07T00:25:15.741Z,19.07
2022-08-07T00:26:48.793Z,19.10
2022-08-07T00:27:53.305Z,19.11
2022-08-07T00:28:57.002Z,19.11
2022-08-07T00:29:58.979Z,19.09
2022-08-07T00:31:01.568Z,19.05
2022-08-07T00:32:07.846Z,19.05
2022-08-07T00:33:10.234Z,19.04
2022-08-07T00:34:13.467Z,19.01
2022-08-07T00:35:21.101Z,18.97
2022-08-07T00:36:25.075Z,18.91
2022-08-07T00:37:30.950Z,18.90
2022-08-07T00:38:50.487Z,18.87
2022-08-07T00:39:54.806Z,18.85
2022-08-07T00:40:57.011Z,18.86
2022-08-07T00:42:02.064Z,18.86
2022-08-07T00:43:09.906Z,18.86
2022-08-07T00:44:12.558Z,18.86
2022-08-07T00:45:17.001Z,18.89
2022-08-07T00:46:19.398Z,18.90
2022-08-07T00:48:08.783Z,18.91
2022-08-07T00:48:43.516Z,18.94
2022-08-07T00:50:20.670Z,18.94
2022-08-07T00:51:08.601Z,18.96
2022-08-07T00:52:10.813Z,18.97
2022-08-07T00:53:13.836Z,18.95
2022-08-07T00:54:19.748Z,18.95
2022-08-07T00:56:00.172Z,18.97
2022-08-07T00:56:44.957Z,18.98
2022-08-07T00:57:55.957Z,18.99
2022-08-07T00:58:58.241Z,19.02
2022-08-07T01:00:00.606Z,19.00
2022-08-07T01:01:02.755Z,18.96
2022-08-07T01:02:14.103Z,18.94
2022-08-07T01:03:55.738Z,18.96
2022-08-07T01:04:52.813Z,18.96
2022-08-07T01:05:56.313Z,18.97
2022-08-07T01:06:58.203Z,18.98
2022-08-07T01:08:00.041Z,18.99
2022-08-07T01:09:02.845Z,19.00
2022-08-07T01:10:11.209Z,19.01
2022-08-07T01:12:09.036Z,19.02
2022-08-07T01:12:38.032Z,19.01
2022-08-07T01:13:41.228Z,18.98
2022-08-07T01:15:01.456Z,18.96
2022-08-07T01:16:06.888Z,18.96
2022-08-07T01:17:10.200Z,18.96
2022-08-07T01:18:17.017Z,18.96
2022-08-07T01:19:20.899Z,18.95
2022-08-07T01:20:35.813Z,18.93
2022-08-07T01:21:45.611Z,18.93
2022-08-07T01:23:00.760Z,18.94
2022-08-07T01:24:10.363Z,18.94
2022-08-07T01:25:53.528Z,18.95
2022-08-07T01:26:34.910Z,18.96
2022-08-07T01:27:37.243Z,18.97
2022-08-07T01:28:45.815Z,18.98
2022-08-07T01:29:48.345Z,18.97
2022-08-07T01:30:53.196Z,18.98
2022-08-07T01:31:59.488Z,18.99
2022-08-07T01:33:02.312Z,18.99
2022-08-07T01:34:06.007Z,19.00
2022-08-07T01:35:08.178Z,18.99
2022-08-07T01:36:12.276Z,19.01
2022-08-07T01:37:18.961Z,19.01
2022-08-07T01:38:25.873Z,18.99
2022-08-07T01:39:41.351Z,18.98
2022-08-07T01:40:49.908Z,18.98
2022-08-07T01:42:07.305Z,19.01
2022-08-07T01:43:16.893Z,19.01
2022-08-07T01:44:18.748Z,19.02
2022-08-07T01:45:22.793Z,19.02
2022-08-07T01:46:40.311Z,19.01
2022-08-07T01:48:17.556Z,18.97
2022-08-07T01:49:06.198Z,18.94
2022-08-07T01:50:08.295Z,18.91
2022-08-07T01:52:01.009Z,18.92
2022-08-07T01:52:34.855Z,18.94
2022-08-07T01:54:09.152Z,18.95
2022-08-07T01:55:02.042Z,18.98
2022-08-07T01:56:22.960Z,18.98
2022-08-07T01:58:05.602Z,18.99
2022-08-07T01:59:03.360Z,19.01
2022-08-07T02:00:13.236Z,19.00
2022-08-07T02:01:25.547Z,19.01
2022-08-07T02:03:18.118Z,19.05
2022-08-07T02:04:14.084Z,19.06
2022-08-07T02:05:43.320Z,19.04
2022-08-07T02:06:43.366Z,19.03
2022-08-07T02:07:51.730Z,19.04
2022-08-07T02:08:54.603Z,19.05
2022-08-07T02:09:58.271Z,19.06
2022-08-07T02:11:03.477Z,19.06
2022-08-07T02:12:17.612Z,19.07
2022-08-07T02:13:47.033Z,19.06
2022-08-07T02:14:50.444Z,19.04
2022-08-07T02:15:54.249Z,19.04
2022-08-07T02:16:57.272Z,19.03
2022-08-07T02:18:02.033Z,19.02
2022-08-07T02:19:05.498Z,19.04
2022-08-07T02:20:27.310Z,19.04
2022-08-07T02:21:56.604Z,19.05
2022-08-07T02:22:59.682Z,19.05
2022-08-07T02:24:02.684Z,19.07
2022-08-07T02:25:07.221Z,19.07
2022-08-07T02:26:32.809Z,19.08
2022-08-07T02:27:37.271Z,19.07
2022-08-07T02:28:43.663Z,19.02
2022-08-07T02:29:54.391Z,19.02
2022-08-07T02:30:58.065Z,19.01
2022-08-07T02:32:02.061Z,18.97
2022-08-07T02:33:09.469Z,18.99
2022-08-07T02:34:17.205Z,19.01
2022-08-07T02:35:20.506Z,19.00
2022-08-07T02:36:42.785Z,18.99
2022-08-07T02:37:48.419Z,18.99
2022-08-07T02:38:56.721Z,19.00
2022-08-07T02:40:02.427Z,19.02
2022-08-07T02:41:22.367Z,19.01
2022-08-07T02:42:35.709Z,19.02
2022-08-07T02:43:39.704Z,19.00
2022-08-07T02:44:48.021Z,18.99
2022-08-07T02:45:58.127Z,18.95
2022-08-07T02:47:02.942Z,18.93
2022-08-07T02:48:10.021Z,18.93
2022-08-07T02:49:12.322Z,18.95
2022-08-07T02:50:35.300Z,18.97
2022-08-07T02:51:49.680Z,18.97
2022-08-07T02:53:14.233Z,18.95
2022-08-07T02:54:17.101Z,18.85
2022-08-07T02:55:27.967Z,18.85
2022-08-07T02:56:44.396Z,18.85
2022-08-07T02:57:49.285Z,18.87
2022-08-07T02:58:55.159Z,18.89
2022-08-07T03:00:01.283Z,18.91
2022-08-07T03:01:16.005Z,18.92
2022-08-07T03:02:21.675Z,18.93
2022-08-07T03:03:25.238Z,18.92
2022-08-07T03:04:32.220Z,18.92
2022-08-07T03:05:37.112Z,18.93
2022-08-07T03:06:40.874Z,18.93
2022-08-07T03:08:07.608Z,18.94
2022-08-07T03:09:11.343Z,18.95
2022-08-07T03:10:14.534Z,18.96
2022-08-07T03:11:16.843Z,18.96
2022-08-07T03:12:21.973Z,18.96
2022-08-07T03:13:24.811Z,18.96
2022-08-07T03:14:28.687Z,18.97
2022-08-07T03:15:55.573Z,18.96
2022-08-07T03:16:52.827Z,18.91
2022-08-07T03:17:54.771Z,18.92
2022-08-07T03:18:56.874Z,18.93
2022-08-07T03:19:59.004Z,18.94
2022-08-07T03:21:01.954Z,18.95
2022-08-07T03:22:06.424Z,18.93
2022-08-07T03:23:18.898Z,18.92
2022-08-07T03:24:27.270Z,18.88
2022-08-07T03:25:32.493Z,18.82
2022-08-07T03:26:43.125Z,18.77
2022-08-07T03:28:08.848Z,18.76
2022-08-07T03:29:14.774Z,18.75
2022-08-07T03:30:17.114Z,18.74
2022-08-07T03:31:23.723Z,18.71
2022-08-07T03:32:29.849Z,18.72
2022-08-07T03:33:40.207Z,18.72
2022-08-07T03:34:47.292Z,18.73
2022-08-07T03:36:03.136Z,18.75
2022-08-07T03:37:12.167Z,18.77
2022-08-07T03:38:15.577Z,18.80
2022-08-07T03:39:18.278Z,18.82
2022-08-07T03:40:40.287Z,18.84
2022-08-07T03:41:50.711Z,18.85
2022-08-07T03:42:53.066Z,18.83
2022-08-07T03:43:57.085Z,18.77
2022-08-07T03:44:59.762Z,18.74
2022-08-07T03:46:04.133Z,18.70
2022-08-07T03:47:14.739Z,18.72
2022-08-07T03:48:16.775Z,18.74
2022-08-07T03:49:18.664Z,18.76
2022-08-07T03:50:23.064Z,18.79
2022-08-07T03:51:30.910Z,18.83
2022-08-07T03:52:48.852Z,18.84
2022-08-07T03:54:32.965Z,18.85
2022-08-07T03:55:13.193Z,18.85
2022-08-07T03:56:32.566Z,18.84
2022-08-07T03:58:34.531Z,18.83
2022-08-07T03:59:08.746Z,18.83
2022-08-07T04:00:14.977Z,18.82
2022-08-07T04:01:17.699Z,18.83
2022-08-07T04:02:20.941Z,18.84
2022-08-07T04:03:22.795Z,18.84
2022-08-07T04:04:25.176Z,18.81
2022-08-07T04:05:39.673Z,18.81
2022-08-07T04:06:44.473Z,18.82
2022-08-07T04:07:51.044Z,18.82
2022-08-07T04:08:54.480Z,18.83
2022-08-07T04:09:58.185Z,18.84
2022-08-07T04:12:24.146Z,18.84
2022-08-07T04:12:28.914Z,18.81
2022-08-07T04:14:09.981Z,18.79
2022-08-07T04:14:53.877Z,18.78
2022-08-07T04:15:58.362Z,18.74
2022-08-07T04:17:00.256Z,18.72
2022-08-07T04:18:57.613Z,18.73
2022-08-07T04:19:51.065Z,18.77
2022-08-07T04:20:54.836Z,18.77
2022-08-07T04:21:59.306Z,18.78
2022-08-07T04:23:06.634Z,18.77
2022-08-07T04:24:10.830Z,18.76
2022-08-07T04:25:39.130Z,18.77
2022-08-07T04:26:43.736Z,18.75
2022-08-07T04:27:59.121Z,18.75
2022-08-07T04:29:03.019Z,18.72
2022-08-07T04:30:11.923Z,18.73
2022-08-07T04:32:02.306Z,18.74
2022-08-07T04:32:48.454Z,18.74
2022-08-07T04:34:00.695Z,18.74
2022-08-07T04:35:05.381Z,18.76
2022-08-07T04:36:10.850Z,18.76
2022-08-07T04:37:20.223Z,18.75
2022-08-07T04:38:22.425Z,18.72
2022-08-07T04:39:26.290Z,18.70
2022-08-07T04:40:31.293Z,18.68
2022-08-07T04:41:36.784Z,18.69
2022-08-07T04:42:38.971Z,18.68
2022-08-07T04:44:13.091Z,18.70
2022-08-07T04:45:09.039Z,18.72
2022-08-07T04:46:20.088Z,18.73
2022-08-07T04:47:57.357Z,18.73
2022-08-07T04:49:17.779Z,18.72
2022-08-07T04:50:22.282Z,18.72
2022-08-07T04:51:45.653Z,18.73
2022-08-07T04:52:59.706Z,18.73
2022-08-07T04:54:11.369Z,18.73
2022-08-07T04:58:09.596Z,18.74
2022-08-07T04:58:14.162Z,18.72
2022-08-07T04:58:49.603Z,18.68
2022-08-07T05:00:11.170Z,18.58
2022-08-07T05:01:32.629Z,18.60
2022-08-07T05:02:43.564Z,18.65
2022-08-07T05:04:06.375Z,18.66
2022-08-07T05:05:54.473Z,18.56
2022-08-07T05:06:51.805Z,18.56
2022-08-07T05:07:55.604Z,18.60
2022-08-07T05:09:03.363Z,18.61
2022-08-07T05:10:05.253Z,18.62
2022-08-07T05:11:58.454Z,18.61
2022-08-07T05:14:53.404Z,18.52
2022-08-07T05:14:55.449Z,18.52
2022-08-07T05:16:00.225Z,18.56
2022-08-07T05:17:11.881Z,18.58
2022-08-07T05:18:29.957Z,18.61
2022-08-07T05:19:45.153Z,18.65
2022-08-07T05:20:50.264Z,18.69
2022-08-07T05:21:59.429Z,18.71
2022-08-07T05:23:16.142Z,18.73
2022-08-07T05:24:19.356Z,18.73
2022-08-07T05:25:54.424Z,18.73
2022-08-07T05:26:52.450Z,18.75
2022-08-07T05:28:03.202Z,18.73
2022-08-07T05:29:20.574Z,18.76
2022-08-07T05:30:32.654Z,18.76
2022-08-07T05:31:39.553Z,18.78
2022-08-07T05:32:41.730Z,18.79
2022-08-07T05:34:01.004Z,18.82
2022-08-07T05:35:08.878Z,18.82
2022-08-07T05:36:12.056Z,18.83
2022-08-07T05:37:15.680Z,18.84
2022-08-07T05:39:00.839Z,18.84
2022-08-07T05:40:16.829Z,18.85
2022-08-07T05:41:15.628Z,18.86
2022-08-07T05:42:34.346Z,18.87
2022-08-07T05:43:50.161Z,18.88
2022-08-07T05:45:14.558Z,18.91
2022-08-07T05:46:23.454Z,18.92
2022-08-07T05:47:38.553Z,18.95
2022-08-07T05:48:59.011Z,18.95
2022-08-07T05:50:02.386Z,18.97
2022-08-07T05:51:04.482Z,18.98
2022-08-07T05:52:06.476Z,18.99
2022-08-07T05:54:12.472Z,19.01
2022-08-07T05:54:53.709Z,18.94
2022-08-07T05:56:03.452Z,18.89
2022-08-07T05:57:08.617Z,18.83
2022-08-07T05:58:12.068Z,18.77
2022-08-07T05:59:15.549Z,18.77
2022-08-07T06:00:18.008Z,18.72
2022-08-07T06:01:20.456Z,18.67
2022-08-07T06:02:28.804Z,18.64
2022-08-07T06:03:53.265Z,18.63
2022-08-07T06:04:55.433Z,18.62
2022-08-07T06:05:58.187Z,18.65
2022-08-07T06:07:04.570Z,18.72
2022-08-07T06:08:21.561Z,18.78
2022-08-07T06:10:03.833Z,18.86
2022-08-07T06:10:51.411Z,18.86
2022-08-07T06:11:58.112Z,18.88
2022-08-07T06:13:00.659Z,18.84
2022-08-07T06:14:12.437Z,18.78
2022-08-07T06:15:39.127Z,18.79
2022-08-07T06:16:50.207Z,18.84
2022-08-07T06:17:54.999Z,18.87
2022-08-07T06:18:58.095Z,18.87
2022-08-07T06:20:04.176Z,18.91
2022-08-07T06:22:14.716Z,18.96
2022-08-07T06:22:29.338Z,19.01
2022-08-07T06:24:38.526Z,19.02
2022-08-07T06:24:58.480Z,19.07
2022-08-07T06:26:04.263Z,19.10
2022-08-07T06:27:06.449Z,19.13
2022-08-07T06:28:14.174Z,19.14
2022-08-07T06:29:16.685Z,19.16
2022-08-07T06:30:32.145Z,19.18
2022-08-07T06:31:49.714Z,19.16
2022-08-07T06:32:52.591Z,19.17
2022-08-07T06:33:54.905Z,19.16
2022-08-07T06:34:56.757Z,19.15
2022-08-07T06:36:12.103Z,19.13
2022-08-07T06:37:17.262Z,19.12
2022-08-07T06:38:22.633Z,19.16
2022-08-07T06:40:16.867Z,19.21
2022-08-07T06:40:55.307Z,19.24
2022-08-07T06:42:03.614Z,19.22
2022-08-07T06:43:07.198Z,19.17
2022-08-07T06:44:24.382Z,19.20
2022-08-07T06:45:26.305Z,19.23
2022-08-07T06:46:35.031Z,19.25
2022-08-07T06:47:48.032Z,19.28
2022-08-07T06:48:59.127Z,19.32
2022-08-07T06:50:01.188Z,19.34
2022-08-07T06:51:08.251Z,19.36
2022-08-07T06:52:13.005Z,19.37
2022-08-07T06:53:18.671Z,19.37
2022-08-07T06:55:31.676Z,19.33
2022-08-07T06:56:02.143Z,19.31
2022-08-07T06:57:04.875Z,19.31
2022-08-07T06:58:09.529Z,19.36
2022-08-07T07:00:14.595Z,19.37
2022-08-07T07:00:39.537Z,19.37
2022-08-07T07:01:50.585Z,19.39
2022-08-07T07:02:54.463Z,19.37
2022-08-07T07:04:16.404Z,19.41
2022-08-07T07:06:03.947Z,19.44
2022-08-07T07:07:00.507Z,19.51
2022-08-07T07:08:04.151Z,19.54
2022-08-07T07:09:23.327Z,19.57
2022-08-07T07:10:29.971Z,19.62
2022-08-07T07:12:07.646Z,19.62
2022-08-07T07:12:59.005Z,19.62
2022-08-07T07:14:08.304Z,19.62
2022-08-07T07:15:26.334Z,19.65
2022-08-07T07:16:45.247Z,19.63
2022-08-07T07:17:52.566Z,19.66
2022-08-07T07:18:59.776Z,19.67
2022-08-07T07:20:12.169Z,19.68
2022-08-07T07:21:20.010Z,19.70
2022-08-07T07:22:36.008Z,19.71
2022-08-07T07:24:09.210Z,19.72
2022-08-07T07:26:30.660Z,19.73
2022-08-07T07:26:36.883Z,19.76
2022-08-07T07:28:01.920Z,19.75
2022-08-07T07:29:39.887Z,19.78
2022-08-07T07:30:38.721Z,19.81
2022-08-07T07:31:44.596Z,19.83
2022-08-07T07:32:48.717Z,19.79
2022-08-07T07:33:57.178Z,19.82
2022-08-07T07:35:00.680Z,19.82
2022-08-07T07:36:12.861Z,19.82
2022-08-07T07:37:45.162Z,19.82
2022-08-07T07:38:39.356Z,19.81
2022-08-07T07:39:52.027Z,19.81
2022-08-07T07:41:02.216Z,19.82
2022-08-07T07:42:13.287Z,19.79
2022-08-07T07:43:18.674Z,19.75
2022-08-07T07:44:29.321Z,19.75
2022-08-07T07:46:39.905Z,19.73
2022-08-07T07:47:04.277Z,19.75
2022-08-07T07:48:24.106Z,19.80
2022-08-07T07:50:33.517Z,19.80
2022-08-07T07:51:02.224Z,19.81
2022-08-07T07:52:04.109Z,19.81
2022-08-07T07:53:20.535Z,19.81
2022-08-07T07:54:26.619Z,19.80
2022-08-07T07:55:37.662Z,19.78
2022-08-07T07:56:48.861Z,19.82
2022-08-07T07:57:58.194Z,19.83
2022-08-07T07:59:01.589Z,19.86
2022-08-07T08:00:04.506Z,19.87
2022-08-07T08:02:02.513Z,19.87
2022-08-07T08:02:34.225Z,19.87
2022-08-07T08:04:10.736Z,19.84
2022-08-07T08:05:02.274Z,19.86
2022-08-07T08:06:06.818Z,19.87
2022-08-07T08:07:14.025Z,19.87
2022-08-07T08:08:35.417Z,19.89
2022-08-07T08:09:52.359Z,19.90
2022-08-07T08:11:02.821Z,19.92
2022-08-07T08:12:06.172Z,19.95
2022-08-07T08:13:10.395Z,19.97
2022-08-07T08:14:20.239Z,19.95
2022-08-07T08:15:27.801Z,19.98
2022-08-07T08:16:51.465Z,20.02
2022-08-07T08:18:36.481Z,20.04
2022-08-07T08:20:16.319Z,20.04
2022-08-07T08:20:41.005Z,20.08
2022-08-07T08:22:07.842Z,20.10
2022-08-07T08:23:29.201Z,20.13
2022-08-07T08:25:04.759Z,20.15
2022-08-07T08:26:37.416Z,20.19
2022-08-07T08:27:40.354Z,20.21
2022-08-07T08:28:46.340Z,20.23
2022-08-07T08:29:55.663Z,20.26
2022-08-07T08:30:59.297Z,20.28
2022-08-07T08:32:18.567Z,20.30
2022-08-07T08:33:28.739Z,20.34
2022-08-07T08:34:35.894Z,20.37
2022-08-07T08:35:39.594Z,20.39
2022-08-07T08:36:56.179Z,20.39
2022-08-07T08:38:03.558Z,20.42
2022-08-07T08:39:09.200Z,20.42
2022-08-07T08:40:28.624Z,20.44
2022-08-07T08:41:57.690Z,20.46
2022-08-07T08:43:18.000Z,20.47
2022-08-07T08:44:29.459Z,20.50
2022-08-07T08:45:59.059Z,20.54
2022-08-07T08:47:10.018Z,20.58
2022-08-07T08:48:22.233Z,20.61
2022-08-07T08:50:02.126Z,20.64
2022-08-07T08:50:58.948Z,20.68
2022-08-07T08:52:13.968Z,20.68
2022-08-07T08:53:29.477Z,20.67
2022-08-07T08:54:48.407Z,20.68
2022-08-07T08:55:58.804Z,20.68
2022-08-07T08:57:06.455Z,20.69
2022-08-07T08:58:29.316Z,20.67
2022-08-07T08:59:41.789Z,20.70
2022-08-07T09:00:52.828Z,20.72
2022-08-07T09:02:13.316Z,20.71
2022-08-07T09:03:21.305Z,20.73
2022-08-07T09:04:47.196Z,20.75
2022-08-07T09:05:56.104Z,20.76
2022-08-07T09:07:01.479Z,20.76
2022-08-07T09:08:11.680Z,20.76
2022-08-07T09:09:33.324Z,20.77
2022-08-07T09:10:45.184Z,20.79
2022-08-07T09:12:20.118Z,20.81
2022-08-07T09:13:58.483Z,20.81
2022-08-07T09:15:00.860Z,20.81
2022-08-07T09:16:29.861Z,20.81
2022-08-07T09:17:33.980Z,20.80
2022-08-07T09:19:51.168Z,20.82
2022-08-07T09:20:58.536Z,20.83
2022-08-07T09:22:39.399Z,20.86
2022-08-07T09:24:33.733Z,20.86
2022-08-07T09:25:14.767Z,20.86
2022-08-07T09:26:28.167Z,20.86
2022-08-07T09:27:38.304Z,20.87
2022-08-07T09:30:02.250Z,20.82
2022-08-07T09:30:25.580Z,20.85
2022-08-07T09:31:38.597Z,20.86
2022-08-07T09:32:59.197Z,20.87
2022-08-07T09:34:27.342Z,20.86
2022-08-07T09:36:03.238Z,20.83
2022-08-07T09:37:15.011Z,20.86
2022-08-07T09:38:40.104Z,20.86
2022-08-07T09:39:59.471Z,20.85
2022-08-07T09:41:04.276Z,20.87
2022-08-07T09:42:25.301Z,20.90
2022-08-07T09:44:05.570Z,20.92
2022-08-07T09:47:27.625Z,20.92
2022-08-07T09:47:52.426Z,20.91
2022-08-07T09:48:19.066Z,20.94
2022-08-07T09:50:00.977Z,20.98
2022-08-07T09:51:26.094Z,21.05
2022-08-07T09:52:52.522Z,21.09
2022-08-07T09:54:02.664Z,21.10
2022-08-07T09:55:29.840Z,21.12
2022-08-07T09:56:41.907Z,21.17
2022-08-07T09:58:02.556Z,21.14
2022-08-07T09:59:14.607Z,21.07
2022-08-07T10:00:18.995Z,21.05
2022-08-07T10:01:52.185Z,21.05
2022-08-07T10:04:03.694Z,21.08
2022-08-07T10:04:53.379Z,21.11
2022-08-07T10:06:05.390Z,21.17
2022-08-07T10:07:24.260Z,21.15
2022-08-07T10:08:27.990Z,21.18
2022-08-07T10:09:59.192Z,21.17
2022-08-07T10:11:17.102Z,21.20
2022-08-07T10:12:54.622Z,21.20
2022-08-07T10:14:01.949Z,21.23
2022-08-07T10:15:37.864Z,21.23
2022-08-07T10:17:01.111Z,21.23
2022-08-07T10:18:06.761Z,21.20
2022-08-07T10:19:19.809Z,21.20
2022-08-07T10:20:30.606Z,21.24
2022-08-07T10:22:12.196Z,21.27
2022-08-07T10:24:05.007Z,21.33
2022-08-07T10:24:51.419Z,21.37
2022-08-07T10:25:57.985Z,21.40
2022-08-07T10:27:20.528Z,21.44
2022-08-07T10:28:39.881Z,21.47
2022-08-07T10:30:06.349Z,21.47
2022-08-07T10:31:22.456Z,21.49
2022-08-07T10:32:52.735Z,21.51
2022-08-07T10:34:05.973Z,21.49
2022-08-07T10:35:20.192Z,21.50
2022-08-07T10:36:40.591Z,21.51
2022-08-07T10:38:09.850Z,21.52
2022-08-07T10:39:25.723Z,21.54
2022-08-07T10:41:04.354Z,21.54
2022-08-07T10:42:31.283Z,21.58
2022-08-07T10:44:02.304Z,21.63
2022-08-07T10:45:19.595Z,21.67
2022-08-07T10:46:53.860Z,21.69
2022-08-07T10:48:08.281Z,21.70
2022-08-07T10:49:16.389Z,21.68
2022-08-07T10:50:26.598Z,21.65
2022-08-07T10:52:01.441Z,21.61
2022-08-07T10:53:08.864Z,21.64
2022-08-07T10:54:18.164Z,21.65
2022-08-07T10:55:38.639Z,21.67
2022-08-07T10:56:54.523Z,21.68
2022-08-07T10:57:56.560Z,21.67
2022-08-07T10:59:21.281Z,21.68
2022-08-07T11:00:36.986Z,21.70
2022-08-07T11:01:51.393Z,21.70
2022-08-07T11:03:20.472Z,21.73
2022-08-07T11:04:42.195Z,21.76
2022-08-07T11:05:53.259Z,21.78
2022-08-07T11:07:59.045Z,21.80
2022-08-07T11:09:00.032Z,21.77
2022-08-07T11:10:07.042Z,21.79
2022-08-07T11:11:20.834Z,21.81
2022-08-07T11:12:43.467Z,21.79
2022-08-07T11:14:45.144Z,21.79
2022-08-07T11:15:18.165Z,21.78
2022-08-07T11:16:40.212Z,21.76
2022-08-07T11:17:48.433Z,21.77
2022-08-07T11:19:06.924Z,21.76
2022-08-07T11:20:18.161Z,21.76
2022-08-07T11:21:27.504Z,21.75
2022-08-07T11:22:51.701Z,21.76
2022-08-07T11:24:11.860Z,21.77
2022-08-07T11:25:16.875Z,21.77
2022-08-07T11:26:27.212Z,21.70
2022-08-07T11:28:02.513Z,21.65
2022-08-07T11:29:13.220Z,21.65
2022-08-07T11:30:41.955Z,21.65
2022-08-07T11:31:47.193Z,21.64
2022-08-07T11:33:01.898Z,21.65
2022-08-07T11:34:16.308Z,21.66
2022-08-07T11:35:26.730Z,21.68
2022-08-07T11:36:47.372Z,21.70
2022-08-07T11:38:12.457Z,21.70
2022-08-07T11:39:20.916Z,21.69
2022-08-07T11:40:54.259Z,21.70
2022-08-07T11:42:07.885Z,21.71
2022-08-07T11:43:54.587Z,21.70
2022-08-07T11:44:58.983Z,21.68
2022-08-07T11:46:16.931Z,21.69
2022-08-07T11:47:55.903Z,21.68
2022-08-07T11:49:50.316Z,21.69
2022-08-07T11:50:57.974Z,21.67
2022-08-07T11:52:19.669Z,21.66
2022-08-07T11:54:01.255Z,21.64
2022-08-07T11:56:15.726Z,21.63
2022-08-07T11:56:59.152Z,21.63
2022-08-07T11:58:04.025Z,21.65
2022-08-07T12:00:11.140Z,21.65
2022-08-07T12:01:02.654Z,21.65
2022-08-07T12:02:30.447Z,21.63
2022-08-07T12:03:46.396Z,21.61
2022-08-07T12:04:48.474Z,21.62
2022-08-07T12:06:36.303Z,21.61
2022-08-07T12:07:38.891Z,21.58
2022-08-07T12:08:52.839Z,21.54
2022-08-07T12:10:05.962Z,21.49
2022-08-07T12:11:21.128Z,21.47
2022-08-07T12:12:29.210Z,21.46
2022-08-07T12:13:47.811Z,21.45
2022-08-07T12:15:00.604Z,21.43
2022-08-07T12:16:11.471Z,21.38
2022-08-07T12:17:20.374Z,21.37
2022-08-07T12:18:45.451Z,21.38
2022-08-07T12:20:06.951Z,21.39
2022-08-07T12:21:14.948Z,21.40
2022-08-07T12:22:39.083Z,21.38
2022-08-07T12:24:07.690Z,21.39
2022-08-07T12:26:05.473Z,21.32
2022-08-07T12:27:04.259Z,21.28
2022-08-07T12:28:31.713Z,21.28
2022-08-07T12:29:42.316Z,21.29
2022-08-07T12:30:47.014Z,21.31
2022-08-07T12:32:04.133Z,21.32
2022-08-07T12:33:28.297Z,21.32
2022-08-07T12:34:34.961Z,21.33
2022-08-07T12:35:37.420Z,21.35
2022-08-07T12:36:41.271Z,21.32
2022-08-07T12:38:11.596Z,21.33
2022-08-07T12:39:44.160Z,21.34
2022-08-07T12:40:51.029Z,21.34
2022-08-07T12:41:54.799Z,21.36
2022-08-07T12:43:01.311Z,21.34
2022-08-07T12:44:17.355Z,21.35
2022-08-07T12:45:21.538Z,21.35
2022-08-07T12:46:32.309Z,21.34
2022-08-07T12:47:37.484Z,21.32
2022-08-07T12:48:53.038Z,21.32
2022-08-07T12:50:34.372Z,21.32
2022-08-07T12:51:51.131Z,21.33
2022-08-07T12:53:05.196Z,21.35
2022-08-07T12:54:37.904Z,21.35
2022-08-07T12:56:02.428Z,21.34
2022-08-07T12:57:09.346Z,21.31
2022-08-07T12:58:14.978Z,21.31
2022-08-07T12:59:20.310Z,21.26
2022-08-07T13:00:32.553Z,21.26
2022-08-07T13:01:43.302Z,21.26
2022-08-07T13:02:47.135Z,21.29
2022-08-07T13:04:04.708Z,21.29
2022-08-07T13:06:02.950Z,21.29
2022-08-07T13:07:01.094Z,21.30
2022-08-07T13:08:14.231Z,21.32
2022-08-07T13:10:21.618Z,21.34
2022-08-07T13:11:08.595Z,21.33
2022-08-07T13:12:29.132Z,21.33
2022-08-07T13:13:48.262Z,21.33
2022-08-07T13:14:59.468Z,21.35
2022-08-07T13:16:01.219Z,21.36
2022-08-07T13:17:03.048Z,21.37
2022-08-07T13:18:08.836Z,21.36
2022-08-07T13:19:18.184Z,21.36
2022-08-07T13:20:27.817Z,21.35
2022-08-07T13:21:37.185Z,21.32
2022-08-07T13:24:01.654Z,21.29
2022-08-07T13:24:52.256Z,21.27
2022-08-07T13:26:00.863Z,21.30
2022-08-07T13:27:23.110Z,21.30
2022-08-07T13:28:41.825Z,21.33
2022-08-07T13:30:04.501Z,21.32
2022-08-07T13:31:13.129Z,21.31
2022-08-07T13:32:31.877Z,21.32
2022-08-07T13:34:32.621Z,21.30
2022-08-07T13:35:59.716Z,21.27
2022-08-07T13:37:19.859Z,21.24
2022-08-07T13:38:30.493Z,21.23
2022-08-07T13:40:33.117Z,21.20
2022-08-07T13:41:08.479Z,21.20
2022-08-07T13:42:21.417Z,21.20
2022-08-07T13:43:27.747Z,21.21
2022-08-07T13:44:34.627Z,21.20
2022-08-07T13:46:11.801Z,21.20
2022-08-07T13:47:04.807Z,21.20
2022-08-07T13:48:27.431Z,21.20
2022-08-07T13:50:33.800Z,21.19
2022-08-07T13:51:27.026Z,21.19
2022-08-07T13:52:32.444Z,21.19
2022-08-07T13:54:01.511Z,21.15
2022-08-07T13:55:10.741Z,21.13
2022-08-07T13:56:18.173Z,21.10
2022-08-07T13:57:25.668Z,21.09
2022-08-07T13:59:00.310Z,21.07
2022-08-07T14:00:04.090Z,21.01
2022-08-07T14:01:13.679Z,20.99
2022-08-07T14:02:21.723Z,21.00
2022-08-07T14:04:05.482Z,20.99
2022-08-07T14:05:08.065Z,20.98
2022-08-07T14:06:11.921Z,20.98
2022-08-07T14:07:14.267Z,20.94
2022-08-07T14:08:18.357Z,20.93
2022-08-07T14:10:05.150Z,20.90
2022-08-07T14:11:01.837Z,20.89
2022-08-07T14:12:27.544Z,20.89
2022-08-07T14:13:33.839Z,20.90
2022-08-07T14:15:01.964Z,20.92
2022-08-07T14:16:05.612Z,20.93
2022-08-07T14:18:12.097Z,20.95
2022-08-07T14:18:57.329Z,20.96
2022-08-07T14:20:43.458Z,20.98
2022-08-07T14:22:03.294Z,21.02
2022-08-07T14:23:09.308Z,21.03
2022-08-07T14:24:15.796Z,21.07
2022-08-07T14:25:18.192Z,21.08
2022-08-07T14:26:30.353Z,21.08
2022-08-07T14:28:12.224Z,21.08
2022-08-07T14:30:06.482Z,21.09
2022-08-07T14:30:33.350Z,21.09
2022-08-07T14:31:43.431Z,21.12
2022-08-07T14:33:00.329Z,21.15
2022-08-07T14:34:02.382Z,21.21
2022-08-07T14:35:43.190Z,21.26
2022-08-07T14:36:40.922Z,21.30
2022-08-07T14:38:05.821Z,21.33
2022-08-07T14:39:08.890Z,21.33
2022-08-07T14:40:26.346Z,21.38
2022-08-07T14:41:33.910Z,21.43
2022-08-07T14:43:55.128Z,21.50
2022-08-07T14:44:16.830Z,21.55
2022-08-07T14:45:22.413Z,21.60
2022-08-07T14:46:30.559Z,21.64
2022-08-07T14:47:34.212Z,21.67
2022-08-07T14:48:37.381Z,21.68
2022-08-07T14:51:05.461Z,21.71
2022-08-07T14:52:10.510Z,21.73
2022-08-07T14:53:12.745Z,21.77
2022-08-07T14:55:56.250Z,21.82
2022-08-07T14:57:04.101Z,21.77
2022-08-07T14:58:06.554Z,21.75
2022-08-07T15:00:05.438Z,21.73
2022-08-07T15:00:51.650Z,21.73
2022-08-07T15:01:54.564Z,21.72
2022-08-07T15:03:16.470Z,21.74
2022-08-07T15:04:25.188Z,21.71
2022-08-07T15:05:30.341Z,21.73
2022-08-07T15:06:34.077Z,21.73
2022-08-07T15:07:47.251Z,21.75
2022-08-07T15:08:55.667Z,21.76
2022-08-07T15:10:04.677Z,21.78
2022-08-07T15:11:10.082Z,21.78
2022-08-07T15:12:25.978Z,21.76
2022-08-07T15:13:52.558Z,21.76
2022-08-07T15:15:07.856Z,21.74
2022-08-07T15:16:14.623Z,21.73
2022-08-07T15:17:20.384Z,21.71
2022-08-07T15:18:40.242Z,21.72
2022-08-07T15:21:58.595Z,21.65
2022-08-07T15:25:13.162Z,21.64
2022-08-07T15:25:40.914Z,21.63
2022-08-07T15:26:46.951Z,21.63
2022-08-07T15:28:26.572Z,21.64
2022-08-07T15:32:02.792Z,21.60
2022-08-07T15:33:19.691Z,21.60
2022-08-07T15:34:22.699Z,21.61
2022-08-07T15:37:03.852Z,21.60
2022-08-07T15:38:29.725Z,21.58
2022-08-07T15:39:57.275Z,21.57
2022-08-07T15:42:45.114Z,21.56
2022-08-07T15:42:45.602Z,21.57
2022-08-07T15:43:58.730Z,21.56
2022-08-07T15:45:02.127Z,21.55
2022-08-07T15:46:32.472Z,21.57
2022-08-07T15:48:01.468Z,21.56
2022-08-07T15:49:13.293Z,21.58
2022-08-07T15:50:37.656Z,21.62
2022-08-07T15:53:05.897Z,21.60
2022-08-07T15:54:12.222Z,21.61
2022-08-07T15:55:15.566Z,21.60
2022-08-07T15:56:18.287Z,21.59
2022-08-07T15:57:39.165Z,21.59
2022-08-07T15:58:52.069Z,21.58